createdAt,value
2022-12-18T00:01:16.873Z,36.17
2022-12-18T00:06:12.916Z,34.53
2022-12-18T00:08:40.301Z,34.65
2022-12-18T00:11:10.434Z,39.40
2022-12-18T00:13:38.299Z,40.55
2022-12-18T00:16:06.812Z,40.58
2022-12-18T00:18:34.546Z,41.88
2022-12-18T00:21:06.835Z,41.05
2022-12-18T00:23:35.266Z,37.58
2022-12-18T00:26:03.727Z,33.88
2022-12-18T00:28:31.173Z,34.03
2022-12-18T00:31:04.088Z,32.45
2022-12-18T00:33:31.852Z,29.80
2022-12-18T00:36:07.860Z,31.85
2022-12-18T00:38:35.579Z,29.98
2022-12-18T00:41:03.215Z,35.70
2022-12-18T00:43:30.637Z,35.40
2022-12-18T00:45:58.078Z,39.47
2022-12-18T00:48:25.572Z,41.78
2022-12-18T00:50:52.973Z,46.45
2022-12-18T00:53:20.379Z,34.85
2022-12-18T00:55:48.007Z,34.17
2022-12-18T00:58:16.325Z,32.55
2022-12-18T01:00:43.973Z,36.13
2022-12-18T01:03:11.530Z,32.80
2022-12-18T01:05:41.253Z,31.35
2022-12-18T01:08:08.725Z,32.42
2022-12-18T01:10:36.148Z,33.42
2022-12-18T01:13:03.598Z,36.58
2022-12-18T01:15:31.058Z,29.85
2022-12-18T01:17:58.545Z,29.05
2022-12-18T01:20:26.014Z,29.40
2022-12-18T01:22:53.421Z,24.60
2022-12-18T01:25:20.888Z,24.10
2022-12-18T01:27:48.329Z,23.02
2022-12-18T01:30:16.150Z,24.55
2022-12-18T01:32:43.494Z,25.60
2022-12-18T01:35:10.869Z,22.95
2022-12-18T01:37:38.225Z,25.90
2022-12-18T01:40:06.030Z,27.77
2022-12-18T01:42:33.403Z,27.88
2022-12-18T01:45:20.675Z,28.20
2022-12-18T01:47:50.395Z,24.38
2022-12-18T01:50:21.539Z,28.08
2022-12-18T01:52:50.627Z,27.15
2022-12-18T01:55:19.715Z,26.52
2022-12-18T01:57:47.397Z,27.88
2022-12-18T02:00:18.526Z,27.95
2022-12-18T02:02:47.032Z,30.83
2022-12-18T02:05:16.361Z,28.90
2022-12-18T02:07:52.114Z,30.70
2022-12-18T02:10:30.959Z,29.02
2022-12-18T02:13:04.795Z,30.02
2022-12-18T02:15:41.228Z,36.17
2022-12-18T02:18:12.559Z,43.97
2022-12-18T02:20:47.471Z,42.13
2022-12-18T02:23:34.740Z,40.60
2022-12-18T02:26:22.058Z,39.00
2022-12-18T02:28:53.381Z,33.10
2022-12-18T02:31:23.647Z,34.03
2022-12-18T02:33:52.004Z,38.20
2022-12-18T02:36:20.638Z,42.28
2022-12-18T02:38:48.662Z,41.47
2022-12-18T02:41:16.885Z,39.55
2022-12-18T02:43:55.613Z,38.75
2022-12-18T02:46:29.643Z,35.10
2022-12-18T02:49:00.025Z,34.90
2022-12-18T02:51:47.412Z,34.22
2022-12-18T02:54:22.837Z,37.75
2022-12-18T02:56:53.680Z,37.20
2022-12-18T02:59:25.057Z,37.35
2022-12-18T03:01:56.633Z,40.60
2022-12-18T03:04:28.185Z,39.33
2022-12-18T03:06:57.747Z,38.13
2022-12-18T03:09:31.603Z,39.03
2022-12-18T03:12:23.754Z,36.00
2022-12-18T03:14:58.925Z,36.28
2022-12-18T03:17:31.217Z,37.90
2022-12-18T03:20:00.674Z,33.75
2022-12-18T03:22:29.166Z,29.83
2022-12-18T03:24:57.683Z,32.20
2022-12-18T03:27:26.439Z,29.02
2022-12-18T03:30:00.282Z,26.35
2022-12-18T03:32:29.451Z,26.50
2022-12-18T03:35:00.178Z,24.58
2022-12-18T03:37:27.606Z,23.45
2022-12-18T03:39:55.015Z,24.52
2022-12-18T03:42:42.263Z,24.25
2022-12-18T03:45:29.548Z,21.30
2022-12-18T03:48:16.838Z,22.13
2022-12-18T03:50:49.172Z,20.02
2022-12-18T03:53:22.928Z,18.63
2022-12-18T03:55:51.443Z,21.38
2022-12-18T03:58:20.853Z,18.63
2022-12-18T04:00:49.919Z,16.25
2022-12-18T04:03:20.628Z,19.55
2022-12-18T04:05:53.058Z,18.13
2022-12-18T04:08:21.005Z,17.73
2022-12-18T04:10:48.441Z,18.88
2022-12-18T04:13:23.346Z,18.92
2022-12-18T04:15:50.814Z,17.23
2022-12-18T04:18:18.160Z,17.08
2022-12-18T04:20:45.637Z,20.10
2022-12-18T04:23:13.166Z,18.15
2022-12-18T04:25:40.564Z,18.80
2022-12-18T04:28:08.117Z,18.35
2022-12-18T04:30:35.506Z,20.90
2022-12-18T04:33:02.920Z,18.10
2022-12-18T04:35:30.317Z,18.23
2022-12-18T04:37:57.723Z,17.15
2022-12-18T04:40:25.169Z,17.38
2022-12-18T04:42:52.660Z,19.67
2022-12-18T04:45:20.248Z,19.88
2022-12-18T04:47:47.682Z,18.48
2022-12-18T04:50:15.140Z,19.80
2022-12-18T04:52:42.602Z,18.85
2022-12-18T04:55:10.062Z,16.83
2022-12-18T04:57:37.439Z,17.35
2022-12-18T05:00:05.114Z,16.92
2022-12-18T05:02:32.541Z,14.95
2022-12-18T05:04:59.995Z,16.75
2022-12-18T05:07:27.438Z,17.50
2022-12-18T05:09:55.369Z,17.70
2022-12-18T05:12:25.824Z,15.85
2022-12-18T05:14:54.033Z,16.45
2022-12-18T05:17:21.362Z,16.73
2022-12-18T05:19:48.823Z,20.13
2022-12-18T05:22:16.288Z,18.55
2022-12-18T05:24:43.743Z,17.33
2022-12-18T05:27:11.366Z,17.58
2022-12-18T05:29:38.847Z,16.20
2022-12-18T05:32:06.278Z,18.17
2022-12-18T05:34:34.943Z,17.13
2022-12-18T05:37:02.308Z,16.27
2022-12-18T05:39:29.845Z,17.70
2022-12-18T05:41:57.137Z,15.98
2022-12-18T05:44:24.605Z,16.95
2022-12-18T05:46:54.687Z,16.38
2022-12-18T05:49:22.066Z,17.23
2022-12-18T05:51:49.428Z,19.23
2022-12-18T05:54:16.809Z,17.88
2022-12-18T05:56:48.471Z,19.45
2022-12-18T05:59:16.263Z,19.33
2022-12-18T06:01:44.375Z,18.38
2022-12-18T06:04:11.869Z,18.65
2022-12-18T06:06:39.220Z,19.63
2022-12-18T06:09:10.647Z,21.60
2022-12-18T06:11:38.672Z,20.13
2022-12-18T06:14:07.251Z,19.63
2022-12-18T06:16:34.819Z,20.48
2022-12-18T06:19:03.416Z,21.63
2022-12-18T06:21:31.397Z,20.63
2022-12-18T06:23:59.493Z,19.33
2022-12-18T06:26:28.497Z,20.85
2022-12-18T06:28:56.520Z,21.52
2022-12-18T06:31:24.050Z,19.92
2022-12-18T06:33:51.571Z,19.83
2022-12-18T06:36:18.994Z,20.88
2022-12-18T06:38:46.455Z,20.95
2022-12-18T06:41:16.869Z,21.80
2022-12-18T06:43:44.868Z,22.88
2022-12-18T06:46:12.687Z,22.50
2022-12-18T06:48:40.601Z,21.15
2022-12-18T06:51:08.292Z,19.90
2022-12-18T06:53:36.112Z,17.75
2022-12-18T06:56:09.538Z,18.17
2022-12-18T06:58:37.904Z,16.92
2022-12-18T07:01:06.577Z,18.45
2022-12-18T07:03:34.007Z,16.83
2022-12-18T07:06:01.529Z,17.75
2022-12-18T07:08:30.339Z,17.30
2022-12-18T07:10:57.887Z,17.92
2022-12-18T07:13:25.369Z,17.60
2022-12-18T07:15:53.112Z,20.90
2022-12-18T07:18:20.527Z,23.02
2022-12-18T07:20:47.994Z,22.35
2022-12-18T07:23:16.464Z,24.55
2022-12-18T07:25:43.888Z,24.42
2022-12-18T07:28:17.071Z,22.20
2022-12-18T07:30:44.995Z,20.48
2022-12-18T07:33:12.425Z,20.50
2022-12-18T07:35:40.192Z,20.05
2022-12-18T07:38:07.832Z,22.48
2022-12-18T07:40:35.423Z,20.95
2022-12-18T07:43:02.896Z,21.52
2022-12-18T07:45:33.436Z,21.50
2022-12-18T07:48:00.962Z,19.63
2022-12-18T07:50:28.568Z,22.02
2022-12-18T07:52:56.083Z,23.20
2022-12-18T07:55:23.575Z,26.40
2022-12-18T07:57:52.685Z,25.80
2022-12-18T08:00:22.816Z,28.67
2022-12-18T08:02:50.382Z,32.03
2022-12-18T08:05:18.620Z,33.17
2022-12-18T08:07:46.229Z,36.17
2022-12-18T08:10:21.195Z,31.27
2022-12-18T08:12:51.163Z,25.92
2022-12-18T08:15:19.295Z,25.48
2022-12-18T08:17:46.991Z,26.70
2022-12-18T08:20:16.548Z,28.00
2022-12-18T08:22:44.278Z,24.45
2022-12-18T08:25:12.087Z,28.27
2022-12-18T08:27:39.592Z,24.75
2022-12-18T08:30:07.749Z,25.45
2022-12-18T08:32:35.376Z,23.17
2022-12-18T08:35:02.778Z,25.38
2022-12-18T08:37:30.301Z,24.48
2022-12-18T08:39:57.722Z,23.30
2022-12-18T08:42:45.011Z,21.52
2022-12-18T08:45:12.626Z,24.77
2022-12-18T08:47:40.171Z,22.70
2022-12-18T08:50:08.005Z,25.40
2022-12-18T08:52:35.609Z,24.73
2022-12-18T08:55:03.065Z,29.55
2022-12-18T08:57:30.778Z,27.52
2022-12-18T08:59:58.266Z,27.35
2022-12-18T09:02:26.120Z,25.92
2022-12-18T09:04:57.355Z,26.75
2022-12-18T09:07:25.623Z,23.67
2022-12-18T09:09:53.218Z,26.98
2022-12-18T09:12:20.718Z,22.10
2022-12-18T09:14:48.272Z,22.60
2022-12-18T09:17:15.767Z,21.42
2022-12-18T09:19:43.249Z,20.10
2022-12-18T09:22:10.976Z,20.92
2022-12-18T09:24:38.487Z,18.20
2022-12-18T09:27:05.876Z,17.92
2022-12-18T09:29:34.062Z,20.60
2022-12-18T09:32:01.444Z,19.30
2022-12-18T09:34:28.892Z,18.35
2022-12-18T09:36:56.455Z,16.70
2022-12-18T09:39:24.281Z,17.27
2022-12-18T09:41:55.249Z,16.13
2022-12-18T09:44:32.211Z,14.80
2022-12-18T09:47:19.573Z,15.73
2022-12-18T09:49:49.253Z,15.88
2022-12-18T09:52:23.725Z,16.60
2022-12-18T09:54:55.980Z,13.32
2022-12-18T09:57:25.648Z,15.63
2022-12-18T09:59:57.058Z,13.75
2022-12-18T10:02:26.360Z,12.88
2022-12-18T10:05:04.780Z,12.98
2022-12-18T10:07:41.591Z,13.18
2022-12-18T10:10:29.001Z,12.65
2022-12-18T10:13:04.936Z,14.95
2022-12-18T10:15:36.941Z,15.07
2022-12-18T10:18:24.296Z,13.38
2022-12-18T10:20:55.120Z,14.15
2022-12-18T10:23:28.366Z,13.65
2022-12-18T10:26:15.768Z,12.40
2022-12-18T10:28:44.159Z,15.32
2022-12-18T10:31:20.680Z,14.57
2022-12-18T10:33:51.106Z,16.25
2022-12-18T10:36:18.629Z,14.15
2022-12-18T10:38:46.105Z,15.57
2022-12-18T10:41:33.574Z,19.08
2022-12-18T10:44:12.599Z,16.65
2022-12-18T10:46:40.283Z,17.67
2022-12-18T10:49:20.362Z,17.70
2022-12-18T10:51:48.142Z,21.95
2022-12-18T10:54:26.828Z,18.38
2022-12-18T10:57:16.614Z,17.67
2022-12-18T10:59:54.145Z,17.17
2022-12-18T11:02:39.207Z,15.18
2022-12-18T11:05:26.895Z,15.82
2022-12-18T11:07:56.040Z,15.90
2022-12-18T11:10:25.169Z,15.65
2022-12-18T11:12:52.785Z,17.08
2022-12-18T11:15:22.641Z,18.50
2022-12-18T11:17:51.801Z,15.32
2022-12-18T11:20:36.871Z,13.25
2022-12-18T11:23:07.235Z,13.07
2022-12-18T11:25:36.234Z,10.07
2022-12-18T11:28:05.798Z,9.15
2022-12-18T11:30:35.407Z,8.48
2022-12-18T11:33:23.145Z,9.48
2022-12-18T11:36:10.621Z,8.23
2022-12-18T11:38:39.576Z,9.13
2022-12-18T11:41:46.897Z,10.70
2022-12-18T11:44:16.758Z,10.43
2022-12-18T11:46:48.995Z,9.37
2022-12-18T11:49:19.522Z,12.30
2022-12-18T11:51:51.722Z,9.30
2022-12-18T11:54:19.228Z,8.80
2022-12-18T11:57:07.636Z,9.00
2022-12-18T11:59:55.237Z,8.30
2022-12-18T12:02:42.817Z,9.23
2022-12-18T12:05:30.514Z,9.18
2022-12-18T12:08:17.880Z,9.50
2022-12-18T12:11:05.256Z,9.90
2022-12-18T12:13:53.301Z,9.50
2022-12-18T12:16:40.977Z,8.03
2022-12-18T12:19:28.695Z,8.80
2022-12-18T12:22:16.565Z,9.17
2022-12-18T12:24:50.611Z,7.90
2022-12-18T12:27:22.993Z,8.90
2022-12-18T12:30:10.560Z,8.20
2022-12-18T12:32:57.925Z,8.63
2022-12-18T12:35:45.193Z,9.97
2022-12-18T12:38:16.019Z,9.63
2022-12-18T12:40:55.205Z,10.67
2022-12-18T12:43:31.085Z,8.03
2022-12-18T12:46:18.834Z,8.47
2022-12-18T12:48:54.964Z,8.47
2022-12-18T12:51:25.141Z,7.97
2022-12-18T12:53:54.868Z,8.10
2022-12-18T12:59:13.034Z,8.03
2022-12-18T13:02:00.404Z,7.27
2022-12-18T13:04:48.529Z,7.63
2022-12-18T13:07:36.161Z,8.30
2022-12-18T13:10:25.753Z,7.90
2022-12-18T13:13:22.809Z,7.00
2022-12-18T13:18:39.903Z,8.52
2022-12-18T13:21:28.866Z,8.70
2022-12-18T13:23:56.854Z,7.53
2022-12-18T13:26:44.312Z,10.03
2022-12-18T13:29:11.984Z,8.98
2022-12-18T13:31:59.613Z,7.38
2022-12-18T13:34:29.495Z,8.85
2022-12-18T13:37:01.270Z,8.23
2022-12-18T13:39:36.697Z,9.05
2022-12-18T13:42:44.022Z,9.85
2022-12-18T13:45:31.490Z,8.85
2022-12-18T13:47:58.937Z,9.98
2022-12-18T13:50:35.444Z,9.55
2022-12-18T13:53:05.220Z,10.25
2022-12-18T13:55:34.277Z,8.77
2022-12-18T13:58:05.883Z,9.38
2022-12-18T14:00:33.574Z,10.10
2022-12-18T14:03:01.641Z,10.05
2022-12-18T14:05:32.628Z,9.50
2022-12-18T14:08:03.139Z,9.77
2022-12-18T14:10:49.167Z,10.48
2022-12-18T14:13:19.436Z,13.38
2022-12-18T14:15:49.774Z,16.67
2022-12-18T14:18:37.380Z,15.43
2022-12-18T14:21:06.143Z,15.52
2022-12-18T14:23:39.585Z,13.32
2022-12-18T14:26:24.623Z,12.43
2022-12-18T14:28:52.679Z,13.88
2022-12-18T14:31:23.014Z,10.85
2022-12-18T14:33:51.603Z,12.00
2022-12-18T14:36:21.674Z,11.35
2022-12-18T14:38:51.509Z,11.95
2022-12-18T14:41:20.624Z,9.38
2022-12-18T14:43:50.660Z,11.00
2022-12-18T14:46:38.086Z,11.20
2022-12-18T14:49:26.291Z,11.15
2022-12-18T14:51:56.588Z,10.70
2022-12-18T14:54:26.276Z,12.43
2022-12-18T14:56:58.688Z,11.27
2022-12-18T14:59:27.257Z,12.48
2022-12-18T15:02:14.767Z,10.98
2022-12-18T15:04:45.275Z,12.93
2022-12-18T15:07:32.610Z,16.80
2022-12-18T15:10:19.942Z,14.77
2022-12-18T15:12:51.796Z,16.75
2022-12-18T15:15:41.202Z,12.35
2022-12-18T15:18:28.977Z,10.80
2022-12-18T15:21:01.218Z,10.60
2022-12-18T15:23:49.177Z,11.05
2022-12-18T15:26:18.128Z,11.20
2022-12-18T15:29:05.417Z,12.35
2022-12-18T15:31:36.679Z,15.02
2022-12-18T15:34:12.620Z,13.82
2022-12-18T15:36:40.058Z,13.77
2022-12-18T15:39:08.122Z,13.60
2022-12-18T15:41:36.514Z,14.05
2022-12-18T15:44:05.546Z,13.50
2022-12-18T15:46:33.177Z,14.52
2022-12-18T15:49:02.703Z,16.45
2022-12-18T15:51:50.812Z,15.35
2022-12-18T15:54:19.191Z,16.40
2022-12-18T15:57:06.722Z,16.58
2022-12-18T15:59:35.032Z,16.77
2022-12-18T16:02:02.864Z,15.30
2022-12-18T16:04:31.904Z,14.88
2022-12-18T16:07:14.918Z,17.83
2022-12-18T16:12:23.446Z,20.05
2022-12-18T16:14:53.564Z,19.65
2022-12-18T16:17:21.460Z,19.55
2022-12-18T16:19:49.903Z,19.98
2022-12-18T16:22:22.649Z,19.27
2022-12-18T16:24:50.761Z,17.70
2022-12-18T16:27:19.160Z,18.30
2022-12-18T16:29:47.173Z,15.65
2022-12-18T16:32:17.681Z,16.13
2022-12-18T16:34:45.688Z,15.68
2022-12-18T16:37:14.115Z,16.73
2022-12-18T16:39:42.637Z,16.33
2022-12-18T16:42:17.566Z,16.42
2022-12-18T16:44:45.721Z,17.08
2022-12-18T16:47:14.933Z,16.73
2022-12-18T16:49:43.175Z,18.35
2022-12-18T16:52:10.690Z,17.10
2022-12-18T16:54:38.814Z,18.80
2022-12-18T16:57:06.883Z,18.23
2022-12-18T16:59:37.882Z,16.88
2022-12-18T17:02:06.076Z,14.32
2022-12-18T17:04:34.744Z,16.30
2022-12-18T17:07:02.486Z,14.50
2022-12-18T17:09:30.251Z,14.77
2022-12-18T17:11:57.773Z,16.15
2022-12-18T17:14:26.282Z,11.98
2022-12-18T17:17:19.691Z,16.10
2022-12-18T17:19:42.560Z,17.15
2022-12-18T17:22:10.108Z,17.92
2022-12-18T17:24:37.843Z,16.42
2022-12-18T17:27:06.230Z,19.10
2022-12-18T17:29:34.000Z,17.33
2022-12-18T17:32:01.537Z,18.42
2022-12-18T17:34:30.002Z,17.10
2022-12-18T17:36:58.147Z,16.88
2022-12-18T17:39:26.063Z,17.63
2022-12-18T17:41:53.508Z,19.17
2022-12-18T17:44:20.903Z,18.33
2022-12-18T17:46:48.353Z,17.13
2022-12-18T17:49:16.071Z,17.90
2022-12-18T17:51:43.553Z,19.30
2022-12-18T17:54:11.292Z,26.35
2022-12-18T17:56:39.522Z,18.92
2022-12-18T17:59:07.548Z,21.00
2022-12-18T18:01:40.962Z,17.38
2022-12-18T18:04:11.949Z,18.90
2022-12-18T18:06:39.922Z,18.63
2022-12-18T18:09:15.178Z,20.30
2022-12-18T18:12:04.722Z,17.73
2022-12-18T18:14:32.472Z,19.38
2022-12-18T18:17:04.545Z,20.13
2022-12-18T18:19:33.096Z,17.77
2022-12-18T18:22:00.590Z,16.88
2022-12-18T18:24:28.932Z,18.15
2022-12-18T18:26:58.441Z,19.58
2022-12-18T18:29:26.964Z,19.63
2022-12-18T18:31:55.611Z,16.98
2022-12-18T18:34:24.206Z,14.98
2022-12-18T18:36:51.843Z,18.63
2022-12-18T18:39:19.673Z,18.10
2022-12-18T18:41:48.199Z,17.55
2022-12-18T18:44:16.418Z,17.05
2022-12-18T18:46:44.232Z,19.65
2022-12-18T18:49:14.027Z,18.13
2022-12-18T18:51:42.191Z,14.95
2022-12-18T18:54:10.253Z,15.80
2022-12-18T18:57:03.911Z,18.30
2022-12-18T18:59:31.691Z,15.30
2022-12-18T19:02:00.559Z,16.77
2022-12-18T19:04:32.515Z,17.58
2022-12-18T19:07:00.417Z,18.52
2022-12-18T19:09:29.067Z,16.40
2022-12-18T19:12:16.935Z,17.23
2022-12-18T19:14:44.951Z,18.80
2022-12-18T19:17:12.974Z,18.63
2022-12-18T19:19:40.761Z,20.60
2022-12-18T19:22:09.658Z,22.33
2022-12-18T19:24:37.417Z,20.88
2022-12-18T19:27:05.287Z,24.02
2022-12-18T19:29:32.964Z,18.08
2022-12-18T19:32:00.668Z,19.98
2022-12-18T19:34:28.474Z,20.00
2022-12-18T19:36:59.789Z,20.33
2022-12-18T19:39:28.007Z,18.95
2022-12-18T19:41:55.698Z,22.45
2022-12-18T19:44:23.519Z,18.95
2022-12-18T19:46:52.261Z,14.65
2022-12-18T19:49:23.117Z,20.45
2022-12-18T19:51:50.745Z,19.20
2022-12-18T19:54:18.505Z,21.55
2022-12-18T19:56:46.875Z,21.33
2022-12-18T19:59:14.667Z,21.20
2022-12-18T20:01:42.467Z,19.08
2022-12-18T20:04:10.621Z,21.52
2022-12-18T20:06:47.400Z,20.60
2022-12-18T20:09:15.515Z,18.42
2022-12-18T20:11:43.453Z,20.23
2022-12-18T20:14:12.464Z,20.85
2022-12-18T20:16:40.910Z,19.38
2022-12-18T20:19:09.208Z,18.52
2022-12-18T20:21:37.695Z,23.92
2022-12-18T20:24:07.747Z,23.77
2022-12-18T20:26:38.075Z,21.52
2022-12-18T20:29:05.670Z,21.73
2022-12-18T20:31:34.944Z,24.05
2022-12-18T20:34:04.904Z,19.58
2022-12-18T20:36:34.253Z,23.13
2022-12-18T20:39:05.277Z,23.00
2022-12-18T20:41:38.399Z,23.73
2022-12-18T20:44:10.435Z,23.80
2022-12-18T20:46:53.153Z,22.98
2022-12-18T20:49:20.637Z,19.42
2022-12-18T20:51:50.588Z,19.65
2022-12-18T20:54:22.130Z,21.15
2022-12-18T20:56:49.683Z,19.95
2022-12-18T20:59:17.771Z,17.25
2022-12-18T21:01:48.185Z,19.80
2022-12-18T21:04:16.153Z,20.20
2022-12-18T21:06:50.827Z,19.48
2022-12-18T21:09:19.200Z,22.73
2022-12-18T21:12:06.688Z,19.65
2022-12-18T21:14:34.576Z,19.25
2022-12-18T21:17:02.443Z,20.83
2022-12-18T21:19:30.105Z,21.63
2022-12-18T21:21:58.132Z,19.90
2022-12-18T21:24:26.643Z,20.30
2022-12-18T21:26:56.429Z,19.40
2022-12-18T21:29:24.949Z,19.33
2022-12-18T21:31:54.233Z,19.63
2022-12-18T21:34:25.618Z,19.13
2022-12-18T21:36:53.585Z,23.30
2022-12-18T21:39:21.182Z,21.88
2022-12-18T21:42:09.986Z,21.27
2022-12-18T21:44:42.125Z,21.73
2022-12-18T21:47:21.805Z,18.05
2022-12-18T21:49:51.458Z,22.52
2022-12-18T21:52:18.985Z,24.05
2022-12-18T21:54:46.464Z,21.50
2022-12-18T21:57:13.881Z,22.48
2022-12-18T21:59:42.598Z,22.05
2022-12-18T22:02:30.144Z,20.77
2022-12-18T22:04:57.675Z,22.10
2022-12-18T22:07:25.068Z,24.00
2022-12-18T22:09:52.515Z,23.20
2022-12-18T22:12:35.359Z,19.92
2022-12-18T22:15:04.538Z,21.60
2022-12-18T22:17:32.004Z,22.05
2022-12-18T22:19:59.420Z,21.48
2022-12-18T22:22:26.944Z,19.90
2022-12-18T22:24:54.316Z,20.50
2022-12-18T22:27:21.703Z,22.35
2022-12-18T22:30:04.482Z,17.15
2022-12-18T22:32:32.571Z,18.67
2022-12-18T22:35:06.926Z,18.33
2022-12-18T22:37:35.558Z,17.42
2022-12-18T22:40:04.697Z,19.00
2022-12-18T22:42:33.438Z,19.98
2022-12-18T22:45:00.946Z,20.38
2022-12-18T22:47:30.466Z,21.40
2022-12-18T22:49:58.454Z,21.02
2022-12-18T22:52:26.024Z,20.83
2022-12-18T22:54:54.184Z,20.60
2022-12-18T22:57:22.563Z,20.73
2022-12-18T22:59:50.568Z,16.95
2022-12-18T23:02:19.022Z,21.13
2022-12-18T23:04:47.712Z,20.60
2022-12-18T23:07:15.653Z,18.77
2022-12-18T23:09:43.276Z,16.30
2022-12-18T23:12:14.905Z,20.27
2022-12-18T23:14:42.750Z,18.35
2022-12-18T23:17:10.249Z,18.85
2022-12-18T23:19:37.757Z,18.30
2022-12-18T23:22:10.087Z,16.88
2022-12-18T23:24:39.129Z,17.90
2022-12-18T23:27:08.184Z,19.02
2022-12-18T23:29:39.063Z,20.92
2022-12-18T23:32:06.597Z,20.17
2022-12-18T23:34:34.039Z,25.45
2022-12-18T23:37:03.758Z,22.60
2022-12-18T23:39:31.519Z,23.02
2022-12-18T23:41:59.662Z,20.00
2022-12-18T23:44:27.239Z,24.60
2022-12-18T23:46:54.809Z,22.17
2022-12-18T23:49:22.328Z,22.60
2022-12-18T23:51:50.373Z,20.65
2022-12-18T23:54:22.737Z,24.55
2022-12-18T23:57:00.723Z,23.10
2022-12-18T23:59:28.236Z,20.50
